createdAt,value
2018-09-29T00:00:11.220Z,20.90
2018-09-29T00:01:16.478Z,20.90
2018-09-29T00:02:21.814Z,20.90
2018-09-29T00:03:26.920Z,20.90
2018-09-29T00:04:31.866Z,20.90
2018-09-29T00:05:36.830Z,20.90
2018-09-29T00:06:41.877Z,20.90
2018-09-29T00:07:46.874Z,20.90
2018-09-29T00:08:52.005Z,20.90
2018-09-29T00:09:57.241Z,20.90
2018-09-29T00:11:02.494Z,20.90
2018-09-29T00:12:07.625Z,20.90
2018-09-29T00:13:12.924Z,20.90
2018-09-29T00:14:18.038Z,20.90
2018-09-29T00:15:23.021Z,20.90
2018-09-29T00:16:28.323Z,20.90
2018-09-29T00:17:33.268Z,20.90
2018-09-29T00:18:38.334Z,20.90
2018-09-29T00:19:43.529Z,20.90
2018-09-29T00:20:48.739Z,20.90
2018-09-29T00:21:53.986Z,20.90
2018-09-29T00:22:59.063Z,20.90
2018-09-29T00:24:04.276Z,20.90
2018-09-29T00:25:09.506Z,20.90
2018-09-29T00:26:14.593Z,20.90
2018-09-29T00:27:19.757Z,20.90
2018-09-29T00:28:27.170Z,20.90
2018-09-29T00:29:32.347Z,20.90
2018-09-29T00:30:37.595Z,20.90
2018-09-29T00:31:42.904Z,20.90
2018-09-29T00:32:48.153Z,20.90
2018-09-29T00:33:53.329Z,20.90
2018-09-29T00:34:58.549Z,20.90
2018-09-29T00:36:03.635Z,20.90
2018-09-29T00:37:08.723Z,20.90
2018-09-29T00:38:13.873Z,20.90
2018-09-29T00:39:19.134Z,20.90
2018-09-29T00:40:24.420Z,20.90
2018-09-29T00:41:29.719Z,20.90
2018-09-29T00:42:34.998Z,20.90
2018-09-29T00:43:40.202Z,20.80
2018-09-29T00:44:45.568Z,20.80
2018-09-29T00:45:50.669Z,20.80
2018-09-29T00:46:55.976Z,20.80
2018-09-29T00:48:01.241Z,20.80
2018-09-29T00:49:06.433Z,20.80
2018-09-29T00:50:11.518Z,20.80
2018-09-29T00:51:16.682Z,20.80
2018-09-29T00:52:21.929Z,20.80
2018-09-29T00:53:27.170Z,20.80
2018-09-29T00:54:32.221Z,20.80
2018-09-29T00:55:37.281Z,20.80
2018-09-29T00:56:42.437Z,20.80
2018-09-29T00:57:47.397Z,20.80
2018-09-29T00:58:52.592Z,20.80
2018-09-29T00:59:57.647Z,20.80
2018-09-29T01:01:02.774Z,20.80
2018-09-29T01:02:07.888Z,20.80
2018-09-29T01:03:12.968Z,20.80
2018-09-29T01:04:18.106Z,20.80
2018-09-29T01:05:23.397Z,20.80
2018-09-29T01:06:28.521Z,20.80
2018-09-29T01:07:33.658Z,20.80
2018-09-29T01:08:38.898Z,20.80
2018-09-29T01:09:44.508Z,20.80
2018-09-29T01:10:49.762Z,20.80
2018-09-29T01:11:54.911Z,20.80
2018-09-29T01:13:00.209Z,20.80
2018-09-29T01:14:05.461Z,20.80
2018-09-29T01:15:10.708Z,20.80
2018-09-29T01:16:15.827Z,20.80
2018-09-29T01:17:20.833Z,20.80
2018-09-29T01:18:25.941Z,20.80
2018-09-29T01:19:31.231Z,20.80
2018-09-29T01:20:36.376Z,20.80
2018-09-29T01:21:41.488Z,20.80
2018-09-29T01:22:46.771Z,20.80
2018-09-29T01:23:51.913Z,20.80
2018-09-29T01:24:56.989Z,20.80
2018-09-29T01:26:02.277Z,20.80
2018-09-29T01:27:07.236Z,20.80
2018-09-29T01:28:12.450Z,20.80
2018-09-29T01:29:17.592Z,20.80
2018-09-29T01:30:22.806Z,20.80
2018-09-29T01:31:27.951Z,20.80
2018-09-29T01:32:33.095Z,20.80
2018-09-29T01:33:38.388Z,20.80
2018-09-29T01:34:43.568Z,20.80
2018-09-29T01:35:48.495Z,20.80
2018-09-29T01:36:53.634Z,20.80
2018-09-29T01:37:58.713Z,20.80
2018-09-29T01:39:03.833Z,20.80
2018-09-29T01:40:09.004Z,20.80
2018-09-29T01:41:14.231Z,20.70
2018-09-29T01:42:19.358Z,20.70
2018-09-29T01:43:24.593Z,20.70
2018-09-29T01:44:29.903Z,20.70
2018-09-29T01:45:35.154Z,20.70
2018-09-29T01:46:40.263Z,20.70
2018-09-29T01:47:45.339Z,20.70
2018-09-29T01:48:50.541Z,20.70
2018-09-29T01:49:55.756Z,20.70
2018-09-29T01:51:00.972Z,20.70
2018-09-29T01:52:06.093Z,20.70
2018-09-29T01:53:11.339Z,20.70
2018-09-29T01:54:16.456Z,20.70
2018-09-29T01:55:21.721Z,20.70
2018-09-29T01:56:26.989Z,20.70
2018-09-29T01:57:33.150Z,20.70
2018-09-29T01:58:38.394Z,20.70
2018-09-29T01:59:43.514Z,20.70
2018-09-29T02:00:48.611Z,20.70
2018-09-29T02:01:53.860Z,20.70
2018-09-29T02:02:59.167Z,20.70
2018-09-29T02:04:04.501Z,20.70
2018-09-29T02:05:09.499Z,20.70
2018-09-29T02:06:14.477Z,20.70
2018-09-29T02:07:19.701Z,20.70
2018-09-29T02:08:24.821Z,20.70
2018-09-29T02:09:30.119Z,20.70
2018-09-29T02:10:35.264Z,20.70
2018-09-29T02:11:40.361Z,20.70
2018-09-29T02:12:45.331Z,20.70
2018-09-29T02:13:50.536Z,20.70
2018-09-29T02:14:55.867Z,20.70
2018-09-29T02:16:00.965Z,20.70
2018-09-29T02:17:06.242Z,20.70
2018-09-29T02:18:11.348Z,20.70
2018-09-29T02:19:16.314Z,20.70
2018-09-29T02:20:21.494Z,20.70
2018-09-29T02:21:26.724Z,20.70
2018-09-29T02:22:31.946Z,20.70
2018-09-29T02:23:37.083Z,20.70
2018-09-29T02:24:42.313Z,20.70
2018-09-29T02:25:47.459Z,20.70
2018-09-29T02:26:52.473Z,20.70
2018-09-29T02:27:57.541Z,20.70
2018-09-29T02:29:02.593Z,20.70
2018-09-29T02:30:07.653Z,20.70
2018-09-29T02:31:12.748Z,20.70
2018-09-29T02:32:17.777Z,20.70
2018-09-29T02:33:23.004Z,20.70
2018-09-29T02:34:28.111Z,20.70
2018-09-29T02:35:33.311Z,20.70
2018-09-29T02:36:38.588Z,20.70
2018-09-29T02:37:43.843Z,20.70
2018-09-29T02:38:48.944Z,20.70
2018-09-29T02:39:54.091Z,20.70
2018-09-29T02:40:59.381Z,20.70
2018-09-29T02:42:04.652Z,20.70
2018-09-29T02:43:09.825Z,20.60
2018-09-29T02:44:15.111Z,20.60
2018-09-29T02:45:20.335Z,20.60
2018-09-29T02:46:25.393Z,20.70
2018-09-29T02:47:30.688Z,20.60
2018-09-29T02:48:35.921Z,20.60
2018-09-29T02:49:41.162Z,20.60
2018-09-29T02:50:46.611Z,20.60
2018-09-29T02:51:51.772Z,20.60
2018-09-29T02:52:57.126Z,20.60
2018-09-29T02:54:02.252Z,20.60
2018-09-29T02:55:07.506Z,20.60
2018-09-29T02:56:12.762Z,20.60
2018-09-29T02:57:18.830Z,20.60
2018-09-29T02:58:23.940Z,20.60
2018-09-29T02:59:29.181Z,20.60
2018-09-29T03:00:34.468Z,20.60
2018-09-29T03:01:39.669Z,20.60
2018-09-29T03:02:44.942Z,20.60
2018-09-29T03:03:50.172Z,20.60
2018-09-29T03:04:55.441Z,20.60
2018-09-29T03:06:00.555Z,20.60
2018-09-29T03:07:05.793Z,20.60
2018-09-29T03:08:10.987Z,20.60
2018-09-29T03:09:16.131Z,20.60
2018-09-29T03:10:21.218Z,20.60
2018-09-29T03:11:26.469Z,20.60
2018-09-29T03:12:31.806Z,20.60
2018-09-29T03:13:37.050Z,20.60
2018-09-29T03:14:42.273Z,20.60
2018-09-29T03:15:47.447Z,20.60
2018-09-29T03:16:52.699Z,20.60
2018-09-29T03:17:57.948Z,20.60
2018-09-29T03:19:03.139Z,20.60
2018-09-29T03:20:08.409Z,20.60
2018-09-29T03:21:13.470Z,20.60
2018-09-29T03:22:18.710Z,20.60
2018-09-29T03:23:23.900Z,20.60
2018-09-29T03:24:29.220Z,20.60
2018-09-29T03:25:34.279Z,20.60
2018-09-29T03:26:39.431Z,20.60
2018-09-29T03:27:44.500Z,20.60
2018-09-29T03:28:49.750Z,20.60
2018-09-29T03:29:54.975Z,20.60
2018-09-29T03:31:00.224Z,20.60
2018-09-29T03:32:05.439Z,20.60
2018-09-29T03:33:10.677Z,20.60
2018-09-29T03:34:15.777Z,20.60
2018-09-29T03:35:20.898Z,20.60
2018-09-29T03:36:26.070Z,20.60
2018-09-29T03:37:31.116Z,20.60
2018-09-29T03:38:36.199Z,20.60
2018-09-29T03:39:41.278Z,20.60
2018-09-29T03:40:46.477Z,20.60
2018-09-29T03:41:51.655Z,20.60
2018-09-29T03:42:56.923Z,20.60
2018-09-29T03:44:02.204Z,20.60
2018-09-29T03:45:07.573Z,20.60
2018-09-29T03:46:12.802Z,20.60
2018-09-29T03:47:18.128Z,20.60
2018-09-29T03:48:23.233Z,20.60
2018-09-29T03:49:28.396Z,20.60
2018-09-29T03:50:33.532Z,20.60
2018-09-29T03:51:38.625Z,20.60
2018-09-29T03:52:43.676Z,20.60
2018-09-29T03:53:48.954Z,20.60
2018-09-29T03:54:54.066Z,20.60
2018-09-29T03:55:59.176Z,20.60
2018-09-29T03:57:04.433Z,20.60
2018-09-29T03:58:09.666Z,20.60
2018-09-29T03:59:14.938Z,20.60
2018-09-29T04:00:20.245Z,20.50
2018-09-29T04:01:25.397Z,20.60
2018-09-29T04:02:30.750Z,20.60
2018-09-29T04:03:35.933Z,20.60
2018-09-29T04:04:41.204Z,20.50
2018-09-29T04:05:46.472Z,20.50
2018-09-29T04:06:51.788Z,20.50
2018-09-29T04:07:57.055Z,20.50
2018-09-29T04:09:02.268Z,20.50
2018-09-29T04:10:07.536Z,20.50
2018-09-29T04:11:12.725Z,20.50
2018-09-29T04:12:18.003Z,20.50
2018-09-29T04:13:23.136Z,20.50
2018-09-29T04:14:28.239Z,20.50
2018-09-29T04:15:33.353Z,20.50
2018-09-29T04:16:38.543Z,20.50
2018-09-29T04:17:43.882Z,20.50
2018-09-29T04:18:49.020Z,20.50
2018-09-29T04:19:54.236Z,20.50
2018-09-29T04:20:59.397Z,20.60
2018-09-29T04:22:04.711Z,20.50
2018-09-29T04:23:09.833Z,20.50
2018-09-29T04:24:14.935Z,20.50
2018-09-29T04:25:20.272Z,20.50
2018-09-29T04:26:25.390Z,20.50
2018-09-29T04:27:30.607Z,20.50
2018-09-29T04:28:35.843Z,20.50
2018-09-29T04:29:41.041Z,20.50
2018-09-29T04:30:46.335Z,20.50
2018-09-29T04:31:51.511Z,20.50
2018-09-29T04:32:56.775Z,20.50
2018-09-29T04:34:01.867Z,20.50
2018-09-29T04:35:07.188Z,20.50
2018-09-29T04:36:12.354Z,20.50
2018-09-29T04:37:17.588Z,20.50
2018-09-29T04:38:22.664Z,20.50
2018-09-29T04:39:28.013Z,20.50
2018-09-29T04:40:33.188Z,20.50
2018-09-29T04:41:38.389Z,20.50
2018-09-29T04:42:43.491Z,20.50
2018-09-29T04:43:48.784Z,20.50
2018-09-29T04:44:53.994Z,20.50
2018-09-29T04:45:59.077Z,20.50
2018-09-29T04:47:04.278Z,20.50
2018-09-29T04:48:09.366Z,20.50
2018-09-29T04:49:14.559Z,20.50
2018-09-29T04:50:19.782Z,20.50
2018-09-29T04:51:25.055Z,20.50
2018-09-29T04:52:30.332Z,20.50
2018-09-29T04:53:35.455Z,20.50
2018-09-29T04:54:40.743Z,20.50
2018-09-29T04:55:45.965Z,20.50
2018-09-29T04:56:51.261Z,20.50
2018-09-29T04:57:56.490Z,20.50
2018-09-29T04:59:01.630Z,20.50
2018-09-29T05:00:06.824Z,20.50
2018-09-29T05:01:12.089Z,20.50
2018-09-29T05:02:17.280Z,20.50
2018-09-29T05:03:22.402Z,20.50
2018-09-29T05:04:27.613Z,20.50
2018-09-29T05:05:32.847Z,20.50
2018-09-29T05:06:38.232Z,20.50
2018-09-29T05:07:43.293Z,20.50
2018-09-29T05:08:48.554Z,20.50
2018-09-29T05:09:53.866Z,20.50
2018-09-29T05:10:59.097Z,20.50
2018-09-29T05:12:04.362Z,20.50
2018-09-29T05:13:09.624Z,20.50
2018-09-29T05:14:14.736Z,20.50
2018-09-29T05:15:19.747Z,20.50
2018-09-29T05:16:24.728Z,20.50
2018-09-29T05:17:29.873Z,20.50
2018-09-29T05:18:35.002Z,20.50
2018-09-29T05:19:40.230Z,20.50
2018-09-29T05:20:45.499Z,20.50
2018-09-29T05:21:50.773Z,20.50
2018-09-29T05:22:56.067Z,20.50
2018-09-29T05:24:01.356Z,20.50
2018-09-29T05:25:06.446Z,20.50
2018-09-29T05:26:11.667Z,20.50
2018-09-29T05:27:16.798Z,20.50
2018-09-29T05:28:21.824Z,20.50
2018-09-29T05:29:27.091Z,20.50
2018-09-29T05:30:32.213Z,20.50
2018-09-29T05:31:37.451Z,20.50
2018-09-29T05:32:42.570Z,20.50
2018-09-29T05:33:47.721Z,20.50
2018-09-29T05:34:52.815Z,20.50
2018-09-29T05:35:57.956Z,20.50
2018-09-29T05:37:03.083Z,20.50
2018-09-29T05:38:08.233Z,20.50
2018-09-29T05:39:13.422Z,20.50
2018-09-29T05:40:18.566Z,20.50
2018-09-29T05:41:23.859Z,20.60
2018-09-29T05:42:29.020Z,20.50
2018-09-29T05:43:34.286Z,20.50
2018-09-29T05:44:39.483Z,20.50
2018-09-29T05:45:44.826Z,20.60
2018-09-29T05:46:49.985Z,20.60
2018-09-29T05:47:55.192Z,20.60
2018-09-29T05:49:00.479Z,20.60
2018-09-29T05:50:05.615Z,20.60
2018-09-29T05:51:10.780Z,20.60
2018-09-29T05:52:15.859Z,20.60
2018-09-29T05:53:21.017Z,20.60
2018-09-29T05:54:26.085Z,20.60
2018-09-29T05:55:31.338Z,20.60
2018-09-29T05:56:36.632Z,20.60
2018-09-29T05:57:41.709Z,20.60
2018-09-29T05:58:47.007Z,20.60
2018-09-29T05:59:52.112Z,20.60
2018-09-29T06:00:57.380Z,20.60
2018-09-29T06:02:02.563Z,20.60
2018-09-29T06:03:07.855Z,20.60
2018-09-29T06:04:13.109Z,20.60
2018-09-29T06:05:18.308Z,20.70
2018-09-29T06:06:23.421Z,20.60
2018-09-29T06:07:28.739Z,20.60
2018-09-29T06:08:33.905Z,20.60
2018-09-29T06:09:39.123Z,20.60
2018-09-29T06:10:44.337Z,20.60
2018-09-29T06:11:49.463Z,20.60
2018-09-29T06:12:54.569Z,20.60
2018-09-29T06:13:59.660Z,20.60
2018-09-29T06:15:04.752Z,20.60
2018-09-29T06:16:09.973Z,20.60
2018-09-29T06:17:15.206Z,20.60
2018-09-29T06:18:20.537Z,20.60
2018-09-29T06:19:25.787Z,20.60
2018-09-29T06:20:30.901Z,20.60
2018-09-29T06:21:36.179Z,20.60
2018-09-29T06:22:41.281Z,20.60
2018-09-29T06:23:46.326Z,20.60
2018-09-29T06:24:51.470Z,20.60
2018-09-29T06:25:56.736Z,20.60
2018-09-29T06:27:02.114Z,20.60
2018-09-29T06:28:07.291Z,20.60
2018-09-29T06:29:12.477Z,20.60
2018-09-29T06:30:17.801Z,20.60
2018-09-29T06:31:23.057Z,20.60
2018-09-29T06:32:28.267Z,20.60
2018-09-29T06:33:33.392Z,20.60
2018-09-29T06:34:38.613Z,20.60
2018-09-29T06:35:43.898Z,20.60
2018-09-29T06:36:49.334Z,20.60
2018-09-29T06:37:54.594Z,20.60
2018-09-29T06:38:59.868Z,20.60
2018-09-29T06:40:05.045Z,20.60
2018-09-29T06:41:10.246Z,20.60
2018-09-29T06:42:15.598Z,20.60
2018-09-29T06:43:20.770Z,20.60
2018-09-29T06:44:26.055Z,20.60
2018-09-29T06:45:31.349Z,20.60
2018-09-29T06:46:36.489Z,20.60
2018-09-29T06:47:41.869Z,20.60
2018-09-29T06:48:47.112Z,20.60
2018-09-29T06:49:52.370Z,20.60
2018-09-29T06:50:57.675Z,20.60
2018-09-29T06:52:02.901Z,20.60
2018-09-29T06:53:08.070Z,20.60
2018-09-29T06:54:13.404Z,20.60
2018-09-29T06:55:18.589Z,20.60
2018-09-29T06:56:23.901Z,20.60
2018-09-29T06:57:29.218Z,20.60
2018-09-29T06:58:34.563Z,20.60
2018-09-29T06:59:39.926Z,20.60
2018-09-29T07:00:45.170Z,20.60
2018-09-29T07:01:50.420Z,20.60
2018-09-29T07:02:55.694Z,20.60
2018-09-29T07:04:00.832Z,20.60
2018-09-29T07:05:06.107Z,20.60
2018-09-29T07:06:11.418Z,20.60
2018-09-29T07:07:16.609Z,20.60
2018-09-29T07:08:21.896Z,20.60
2018-09-29T07:09:27.208Z,20.60
2018-09-29T07:10:32.538Z,20.60
2018-09-29T07:11:37.849Z,20.60
2018-09-29T07:12:43.550Z,20.60
2018-09-29T07:13:48.859Z,20.60
2018-09-29T07:14:54.145Z,20.60
2018-09-29T07:15:59.568Z,20.60
2018-09-29T07:17:04.814Z,20.60
2018-09-29T07:18:10.123Z,20.60
2018-09-29T07:19:15.328Z,20.60
2018-09-29T07:20:20.754Z,20.60
2018-09-29T07:21:26.089Z,20.60
2018-09-29T07:22:31.264Z,20.60
2018-09-29T07:23:36.535Z,20.60
2018-09-29T07:24:41.856Z,20.60
2018-09-29T07:25:47.182Z,20.60
2018-09-29T07:26:52.411Z,20.60
2018-09-29T07:27:57.788Z,20.60
2018-09-29T07:29:03.174Z,20.60
2018-09-29T07:30:09.303Z,20.60
2018-09-29T07:31:14.790Z,20.60
2018-09-29T07:32:20.235Z,20.60
2018-09-29T07:33:25.576Z,20.60
2018-09-29T07:34:30.799Z,20.60
2018-09-29T07:35:36.129Z,20.60
2018-09-29T07:36:41.285Z,20.60
2018-09-29T07:37:46.509Z,20.60
2018-09-29T07:38:51.728Z,20.60
2018-09-29T07:39:57.108Z,20.60
2018-09-29T07:41:02.353Z,20.60
2018-09-29T07:42:07.742Z,20.60
2018-09-29T07:43:13.018Z,20.60
2018-09-29T07:44:18.368Z,20.60
2018-09-29T07:45:24.628Z,20.60
2018-09-29T07:46:29.993Z,20.60
2018-09-29T07:47:35.245Z,20.60
2018-09-29T07:48:40.551Z,20.60
2018-09-29T07:49:45.879Z,20.60
2018-09-29T07:50:51.488Z,20.60
2018-09-29T07:51:56.669Z,20.60
2018-09-29T07:53:01.937Z,20.60
2018-09-29T07:54:07.304Z,20.60
2018-09-29T07:55:12.600Z,20.60
2018-09-29T07:56:17.896Z,20.60
2018-09-29T07:57:23.028Z,20.60
2018-09-29T07:58:28.333Z,20.60
2018-09-29T07:59:34.728Z,20.60
2018-09-29T08:00:40.896Z,20.60
2018-09-29T08:01:46.264Z,20.50
2018-09-29T08:02:51.468Z,20.50
2018-09-29T08:03:56.697Z,20.50
2018-09-29T08:05:01.985Z,20.50
2018-09-29T08:06:07.018Z,20.50
2018-09-29T08:07:12.237Z,20.60
2018-09-29T08:08:17.423Z,20.50
2018-09-29T08:09:22.619Z,20.50
2018-09-29T08:10:27.972Z,20.50
2018-09-29T08:11:33.283Z,20.50
2018-09-29T08:12:38.588Z,20.50
2018-09-29T08:13:43.900Z,20.50
2018-09-29T08:14:49.150Z,20.50
2018-09-29T08:15:54.544Z,20.50
2018-09-29T08:16:59.978Z,20.50
2018-09-29T08:18:05.305Z,20.50
2018-09-29T08:19:10.552Z,20.50
2018-09-29T08:20:15.923Z,20.50
2018-09-29T08:21:21.096Z,20.50
2018-09-29T08:22:26.432Z,20.50
2018-09-29T08:23:31.649Z,20.50
2018-09-29T08:24:36.772Z,20.50
2018-09-29T08:25:42.301Z,20.50
2018-09-29T08:26:47.371Z,20.50
2018-09-29T08:27:52.704Z,20.50
2018-09-29T08:28:57.869Z,20.50
2018-09-29T08:30:03.193Z,20.50
2018-09-29T08:31:08.524Z,20.50
2018-09-29T08:32:13.669Z,20.50
2018-09-29T08:33:18.984Z,20.50
2018-09-29T08:34:24.209Z,20.50
2018-09-29T08:35:29.412Z,20.50
2018-09-29T08:36:34.495Z,20.50
2018-09-29T08:37:39.853Z,20.50
2018-09-29T08:38:45.068Z,20.50
2018-09-29T08:39:50.372Z,20.40
2018-09-29T08:40:55.684Z,20.30
2018-09-29T08:42:00.915Z,20.30
2018-09-29T08:43:06.596Z,20.20
2018-09-29T08:44:12.031Z,20.20
2018-09-29T08:45:17.423Z,20.30
2018-09-29T08:46:22.826Z,20.30
2018-09-29T08:47:28.247Z,20.30
2018-09-29T08:48:33.530Z,20.30
2018-09-29T08:49:38.856Z,20.40
2018-09-29T08:50:44.220Z,20.40
2018-09-29T08:51:49.473Z,20.40
2018-09-29T08:52:54.806Z,20.40
2018-09-29T08:54:00.135Z,20.40
2018-09-29T08:55:05.554Z,20.50
2018-09-29T08:56:10.762Z,20.50
2018-09-29T08:57:16.526Z,20.50
2018-09-29T08:58:22.045Z,20.50
2018-09-29T08:59:27.376Z,20.50
2018-09-29T09:00:32.637Z,20.50
2018-09-29T09:01:38.002Z,20.50
2018-09-29T09:02:43.285Z,20.50
2018-09-29T09:03:48.571Z,20.50
2018-09-29T09:04:53.829Z,20.50
2018-09-29T09:05:59.101Z,20.50
2018-09-29T09:07:04.403Z,20.50
2018-09-29T09:08:09.798Z,20.50
2018-09-29T09:09:15.167Z,20.50
2018-09-29T09:10:20.618Z,20.50
2018-09-29T09:11:26.005Z,20.50
2018-09-29T09:12:31.435Z,20.50
2018-09-29T09:13:36.782Z,20.50
2018-09-29T09:14:42.161Z,20.50
2018-09-29T09:15:47.464Z,20.60
2018-09-29T09:16:52.863Z,20.60
2018-09-29T09:17:57.998Z,20.60
2018-09-29T09:19:03.323Z,20.60
2018-09-29T09:20:08.798Z,20.60
2018-09-29T09:21:14.168Z,20.60
2018-09-29T09:22:19.613Z,20.60
2018-09-29T09:23:24.953Z,20.50
2018-09-29T09:24:30.148Z,20.50
2018-09-29T09:25:35.343Z,20.50
2018-09-29T09:26:40.517Z,20.60
2018-09-29T09:27:45.796Z,20.50
2018-09-29T09:28:51.072Z,20.50
2018-09-29T09:29:56.291Z,20.50
2018-09-29T09:31:01.573Z,20.50
2018-09-29T09:32:06.781Z,20.50
2018-09-29T09:33:12.133Z,20.50
2018-09-29T09:34:17.384Z,20.50
2018-09-29T09:35:22.699Z,20.50
2018-09-29T09:36:27.943Z,20.60
2018-09-29T09:37:33.253Z,20.60
2018-09-29T09:38:38.524Z,20.60
2018-09-29T09:39:43.907Z,20.60
2018-09-29T09:40:49.154Z,20.60
2018-09-29T09:41:54.522Z,20.60
2018-09-29T09:42:59.915Z,20.60
2018-09-29T09:44:05.314Z,20.60
2018-09-29T09:45:10.510Z,20.60
2018-09-29T09:46:15.992Z,20.60
2018-09-29T09:47:21.489Z,20.60
2018-09-29T09:48:26.887Z,20.60
2018-09-29T09:49:32.247Z,20.60
2018-09-29T09:50:37.613Z,20.60
2018-09-29T09:51:42.987Z,20.60
2018-09-29T09:52:48.294Z,20.60
2018-09-29T09:53:53.643Z,20.60
2018-09-29T09:54:58.909Z,20.60
2018-09-29T09:56:04.301Z,20.60
2018-09-29T09:57:09.615Z,20.60
2018-09-29T09:58:14.904Z,20.60
2018-09-29T09:59:20.098Z,20.60
2018-09-29T10:00:25.286Z,20.60
2018-09-29T10:01:30.688Z,20.60
2018-09-29T10:02:36.019Z,20.60
2018-09-29T10:03:41.353Z,20.60
2018-09-29T10:04:46.769Z,20.60
2018-09-29T10:05:52.126Z,20.60
2018-09-29T10:06:57.489Z,20.60
2018-09-29T10:08:02.676Z,20.60
2018-09-29T10:09:07.929Z,20.60
2018-09-29T10:10:13.254Z,20.60
2018-09-29T10:11:19.047Z,20.60
2018-09-29T10:12:24.427Z,20.60
2018-09-29T10:13:29.769Z,20.60
2018-09-29T10:14:35.028Z,20.60
2018-09-29T10:15:40.238Z,20.60
2018-09-29T10:16:45.623Z,20.60
2018-09-29T10:17:50.877Z,20.60
2018-09-29T10:18:56.055Z,20.60
2018-09-29T10:20:01.510Z,20.60
2018-09-29T10:21:06.661Z,20.60
2018-09-29T10:22:11.863Z,20.60
2018-09-29T10:23:17.092Z,20.60
2018-09-29T10:24:22.368Z,20.60
2018-09-29T10:25:27.595Z,20.60
2018-09-29T10:26:32.805Z,20.60
2018-09-29T10:27:38.138Z,20.60
2018-09-29T10:28:43.133Z,20.60
2018-09-29T10:29:48.309Z,20.60
2018-09-29T10:30:53.863Z,20.60
2018-09-29T10:31:59.154Z,20.60
2018-09-29T10:33:04.279Z,20.60
2018-09-29T10:34:09.622Z,20.60
2018-09-29T10:35:14.599Z,20.60
2018-09-29T10:36:19.660Z,20.60
2018-09-29T10:37:24.951Z,20.60
2018-09-29T10:38:30.204Z,20.60
2018-09-29T10:39:35.429Z,20.60
2018-09-29T10:40:40.829Z,20.60
2018-09-29T10:41:46.178Z,20.60
2018-09-29T10:42:51.493Z,20.60
2018-09-29T10:43:56.701Z,20.60
2018-09-29T10:45:01.947Z,20.60
2018-09-29T10:46:07.342Z,20.60
2018-09-29T10:47:12.703Z,20.60
2018-09-29T10:48:17.879Z,20.60
2018-09-29T10:49:23.223Z,20.60
2018-09-29T10:50:28.446Z,20.50
2018-09-29T10:51:33.569Z,20.50
2018-09-29T10:52:38.901Z,20.50
2018-09-29T10:53:44.232Z,20.50
2018-09-29T10:54:49.609Z,20.50
2018-09-29T10:55:54.840Z,20.50
2018-09-29T10:57:00.165Z,20.50
2018-09-29T10:58:05.368Z,20.50
2018-09-29T10:59:10.595Z,20.50
2018-09-29T11:00:15.898Z,20.50
2018-09-29T11:01:21.556Z,20.50
2018-09-29T11:02:26.727Z,20.50
2018-09-29T11:03:31.908Z,20.50
2018-09-29T11:04:36.933Z,20.50
2018-09-29T11:05:42.046Z,20.50
2018-09-29T11:06:47.290Z,20.50
2018-09-29T11:07:52.421Z,20.50
2018-09-29T11:08:57.661Z,20.50
2018-09-29T11:10:02.854Z,20.40
2018-09-29T11:11:08.254Z,20.50
2018-09-29T11:12:13.541Z,20.50
2018-09-29T11:13:18.948Z,20.50
2018-09-29T11:14:24.343Z,20.50
2018-09-29T11:15:29.589Z,20.50
2018-09-29T11:16:34.741Z,20.50
2018-09-29T11:17:40.769Z,20.50
2018-09-29T11:18:46.330Z,20.50
2018-09-29T11:19:51.780Z,20.50
2018-09-29T11:20:57.473Z,20.50
2018-09-29T11:22:02.749Z,20.50
2018-09-29T11:23:08.042Z,20.50
2018-09-29T11:24:13.071Z,20.50
2018-09-29T11:25:18.379Z,20.50
2018-09-29T11:26:23.561Z,20.50
2018-09-29T11:27:28.837Z,20.40
2018-09-29T11:28:33.998Z,20.40
2018-09-29T11:29:39.266Z,20.40
2018-09-29T11:30:44.573Z,20.40
2018-09-29T11:31:49.857Z,20.40
2018-09-29T11:32:55.000Z,20.40
2018-09-29T11:34:00.229Z,20.40
2018-09-29T11:35:05.445Z,20.40
2018-09-29T11:36:10.539Z,20.40
2018-09-29T11:37:15.611Z,20.40
2018-09-29T11:38:20.889Z,20.40
2018-09-29T11:39:26.279Z,20.40
2018-09-29T11:40:31.371Z,20.40
2018-09-29T11:41:36.566Z,20.40
2018-09-29T11:42:41.735Z,20.40
2018-09-29T11:43:46.821Z,20.40
2018-09-29T11:44:51.995Z,20.40
2018-09-29T11:45:57.089Z,20.40
2018-09-29T11:47:02.214Z,20.50
2018-09-29T11:48:07.788Z,20.50
2018-09-29T11:49:13.028Z,20.50
2018-09-29T11:50:18.220Z,20.50
2018-09-29T11:51:23.327Z,20.50
2018-09-29T11:52:28.588Z,20.50
2018-09-29T11:53:33.803Z,20.50
2018-09-29T11:54:39.088Z,20.50
2018-09-29T11:55:44.355Z,20.50
2018-09-29T11:56:49.615Z,20.50
2018-09-29T11:57:54.744Z,20.50
2018-09-29T11:58:59.821Z,20.60
2018-09-29T12:00:04.964Z,20.60
2018-09-29T12:01:10.180Z,20.60
2018-09-29T12:02:15.457Z,20.60
2018-09-29T12:03:20.544Z,20.60
2018-09-29T12:04:25.775Z,20.60
2018-09-29T12:05:30.893Z,20.60
2018-09-29T12:06:36.909Z,20.60
2018-09-29T12:07:42.281Z,20.60
2018-09-29T12:08:47.478Z,20.60
2018-09-29T12:09:52.629Z,20.60
2018-09-29T12:10:57.936Z,20.50
2018-09-29T12:12:03.068Z,20.50
2018-09-29T12:13:08.183Z,20.50
2018-09-29T12:14:13.437Z,20.50
2018-09-29T12:15:18.550Z,20.50
2018-09-29T12:16:23.835Z,20.50
2018-09-29T12:17:29.071Z,20.50
2018-09-29T12:18:34.734Z,20.50
2018-09-29T12:19:39.888Z,20.50
2018-09-29T12:20:45.161Z,20.50
2018-09-29T12:21:50.272Z,20.50
2018-09-29T12:22:56.649Z,20.50
2018-09-29T12:24:01.882Z,20.50
2018-09-29T12:25:06.990Z,20.50
2018-09-29T12:26:12.167Z,20.50
2018-09-29T12:27:17.375Z,20.50
2018-09-29T12:28:22.610Z,20.50
2018-09-29T12:29:27.889Z,20.50
2018-09-29T12:30:33.028Z,20.50
2018-09-29T12:31:38.358Z,20.60
2018-09-29T12:32:43.511Z,20.60
2018-09-29T12:33:48.600Z,20.60
2018-09-29T12:34:53.872Z,20.60
2018-09-29T12:35:58.936Z,20.60
2018-09-29T12:37:04.199Z,20.60
2018-09-29T12:38:09.583Z,20.60
2018-09-29T12:39:14.666Z,20.60
2018-09-29T12:40:19.754Z,20.60
2018-09-29T12:41:24.878Z,20.60
2018-09-29T12:42:29.992Z,20.60
2018-09-29T12:43:35.606Z,20.60
2018-09-29T12:44:40.793Z,20.60
2018-09-29T12:45:45.817Z,20.60
2018-09-29T12:46:50.908Z,20.60
2018-09-29T12:47:56.072Z,20.60
2018-09-29T12:49:01.417Z,20.60
2018-09-29T12:50:06.943Z,20.60
2018-09-29T12:51:12.132Z,20.60
2018-09-29T12:52:17.368Z,20.60
2018-09-29T12:53:22.625Z,20.60
2018-09-29T12:54:28.040Z,20.60
2018-09-29T12:55:33.202Z,20.60
2018-09-29T12:56:38.460Z,20.60
2018-09-29T12:57:44.044Z,20.60
2018-09-29T12:58:49.344Z,20.60
2018-09-29T12:59:54.582Z,20.60
2018-09-29T13:00:59.827Z,20.60
2018-09-29T13:02:05.010Z,20.60
2018-09-29T13:03:10.306Z,20.50
2018-09-29T13:04:15.582Z,20.50
2018-09-29T13:05:21.305Z,20.50
2018-09-29T13:06:26.371Z,20.50
2018-09-29T13:07:31.492Z,20.50
2018-09-29T13:08:36.741Z,20.50
2018-09-29T13:09:41.825Z,20.50
2018-09-29T13:10:47.003Z,20.50
2018-09-29T13:11:52.138Z,20.50
2018-09-29T13:12:57.231Z,20.50
2018-09-29T13:14:02.519Z,20.50
2018-09-29T13:15:07.768Z,20.50
2018-09-29T13:16:13.862Z,20.50
2018-09-29T13:17:19.252Z,20.50
2018-09-29T13:18:25.238Z,20.50
2018-09-29T13:19:30.565Z,20.50
2018-09-29T13:20:35.779Z,20.50
2018-09-29T13:21:40.940Z,20.50
2018-09-29T13:22:47.459Z,20.50
2018-09-29T13:23:53.045Z,20.50
2018-09-29T13:24:58.446Z,20.50
2018-09-29T13:26:03.787Z,20.50
2018-09-29T13:27:09.953Z,20.50
2018-09-29T13:28:14.981Z,20.50
2018-09-29T13:29:20.218Z,20.50
2018-09-29T13:30:25.746Z,20.50
2018-09-29T13:31:31.070Z,20.50
2018-09-29T13:32:36.296Z,20.50
2018-09-29T13:33:41.263Z,20.50
2018-09-29T13:34:46.225Z,20.50
2018-09-29T13:35:51.425Z,20.50
2018-09-29T13:36:56.449Z,20.50
2018-09-29T13:38:02.175Z,20.50
2018-09-29T13:39:08.483Z,20.50
2018-09-29T13:40:13.832Z,20.50
2018-09-29T13:41:19.019Z,20.50
2018-09-29T13:42:24.178Z,20.50
2018-09-29T13:43:29.423Z,20.50
2018-09-29T13:44:34.507Z,20.40
2018-09-29T13:45:39.740Z,20.40
2018-09-29T13:46:44.820Z,20.40
2018-09-29T13:47:49.986Z,20.40
2018-09-29T13:48:55.197Z,20.40
2018-09-29T13:50:00.472Z,20.40
2018-09-29T13:51:05.672Z,20.40
2018-09-29T13:52:10.922Z,20.40
2018-09-29T13:53:16.298Z,20.40
2018-09-29T13:54:22.164Z,20.40
2018-09-29T13:55:27.455Z,20.50
2018-09-29T13:56:33.317Z,20.40
2018-09-29T13:57:38.636Z,20.40
2018-09-29T13:58:44.058Z,20.40
2018-09-29T13:59:49.371Z,20.40